Fredericksburg, OH

3:56 AM EDT on March 27, 2015 (GMT -0400)
Weilersville | | Change Station
CLOSE
Current Station
Personal Weather Station
Location: Smithville, OH
Elevation: 1102 ft
Nearby Weather Stations

Elev 1102 ft 40.84 °N, 81.85 °W | Updated 7 minutes ago

Overcast
Overcast
31.8 °F
Feels Like 28 °F
N
3.7
Wind Variable Wind from West

Today
High -- | Low -- °F
--% Chance of Precip.
Yesterday
High -- | Low -- °F
Precip. -- in
7:19 AM 7:46 PM
Waxing Crescent, 50% visible
Pressure 29.94 in
Visibility 10.0 miles
Clouds Overcast 4600 ft
Windchill 28 °F
Dew Point 24 °F
Humidity 74%
Rainfall 0.00 in
Snow Depth Not available.
UV 0 out of 12
Pollen .70 out of 12
Air Quality Not available.
Flu Activity Not available.
METAR KBJJ 270656Z AUTO 31008KT 10SM OVC046 01/M03 A2991 RMK AO2 SLP137 T00061028 TSNO

More Conditions Fewer Conditions

Pressure 29.94 in
Visibility 10.0 miles
Clouds Overcast 4600 ft
Windchill 28 °F
Dew Point 24 °F
Humidity 74%
Rainfall 0.00 in
Snow Depth Not available.
UV 0 out of 12
Pollen .70 out of 12
Air Quality Not available.
Flu Activity Not available.
METAR KBJJ 270656Z AUTO 31008KT 10SM OVC046 01/M03 A2991 RMK AO2 SLP137 T00061028 TSNO

More Conditions Fewer Conditions

10-Day Weather Forecast

Almanac

Astronomy

Mar. 27, 2015 Rise Set
Actual Time
Civil Twilight
Nautical Twilight
Astronomical Twilight
Moon
Length of Visible Light
Length of Day
Tomorrow will be .
, % of the Moon is Illuminated

Today's Extremes

State Highs State Lows

Community

WunderPhotos

Upload Photos

1,808,702 photos uploaded!

WunderBlogs® & News

Nearby

Air Quality

  Air Quality AQ Index Pollutant
Not available.

Snow Depth

Station Depth Elevation

Earthquake Activity

City Distance Mag. Time & Date
Minimum magnitude displayed is 2.5.

Coastal Water Temperatures

Place Temperature

Stations

Nearby Weather Stations

Station Location Temp. Windchill Dew Point Humidity Wind Precip. Elev Updated Type